sensor_id;sensor_type;location;lat;lon;timestamp;temperature;humidity
11246;DHT22;59870;50.106;8.580;2023-05-23T00:02:19;23.90;90.00
11246;DHT22;59870;50.106;8.580;2023-05-23T00:04:46;23.90;90.30
11246;DHT22;59870;50.106;8.580;2023-05-23T00:07:15;23.30;89.70
11246;DHT22;59870;50.106;8.580;2023-05-23T00:09:42;23.30;90.30
11246;DHT22;59870;50.106;8.580;2023-05-23T00:12:09;23.30;90.40
11246;DHT22;59870;50.106;8.580;2023-05-23T00:14:38;23.20;90.80
11246;DHT22;59870;50.106;8.580;2023-05-23T00:17:07;23.20;90.70
11246;DHT22;59870;50.106;8.580;2023-05-23T00:19:37;23.90;90.80
11246;DHT22;59870;50.106;8.580;2023-05-23T00:22:04;23.60;90.80
11246;DHT22;59870;50.106;8.580;2023-05-23T00:24:31;23.30;90.60
11246;DHT22;59870;50.106;8.580;2023-05-23T00:26:59;23.30;90.60
11246;DHT22;59870;50.106;8.580;2023-05-23T00:29:27;23.30;91.00
11246;DHT22;59870;50.106;8.580;2023-05-23T00:31:55;23.30;91.00
11246;DHT22;59870;50.106;8.580;2023-05-23T00:34:22;23.40;91.10
11246;DHT22;59870;50.106;8.580;2023-05-23T00:36:50;23.20;91.20
11246;DHT22;59870;50.106;8.580;2023-05-23T00:39:17;23.30;90.80
11246;DHT22;59870;50.106;8.580;2023-05-23T00:41:49;23.30;90.80
11246;DHT22;59870;50.106;8.580;2023-05-23T00:44:19;23.30;90.80
11246;DHT22;59870;50.106;8.580;2023-05-23T00:46:52;23.80;90.70
11246;DHT22;59870;50.106;8.580;2023-05-23T00:49:22;23.30;90.60
11246;DHT22;59870;50.106;8.580;2023-05-23T00:51:50;23.60;90.40
11246;DHT22;59870;50.106;8.580;2023-05-23T00:54:27;23.40;90.40
11246;DHT22;59870;50.106;8.580;2023-05-23T00:56:57;23.30;90.30
11246;DHT22;59870;50.106;8.580;2023-05-23T00:59:25;23.80;90.40
11246;DHT22;59870;50.106;8.580;2023-05-23T01:01:55;23.30;90.00
11246;DHT22;59870;50.106;8.580;2023-05-23T01:04:22;23.80;90.30
11246;DHT22;59870;50.106;8.580;2023-05-23T01:06:57;23.70;90.20
11246;DHT22;59870;50.106;8.580;2023-05-23T01:09:27;23.10;89.90
11246;DHT22;59870;50.106;8.580;2023-05-23T01:15:12;23.10;90.00
11246;DHT22;59870;50.106;8.580;2023-05-23T01:17:48;23.10;90.00
11246;DHT22;59870;50.106;8.580;2023-05-23T01:20:27;23.10;90.20
11246;DHT22;59870;50.106;8.580;2023-05-23T01:28:30;23.00;90.10
11246;DHT22;59870;50.106;8.580;2023-05-23T01:31:00;23.00;90.30
11246;DHT22;59870;50.106;8.580;2023-05-23T01:33:31;22.90;90.10
11246;DHT22;59870;50.106;8.580;2023-05-23T01:36:01;22.90;90.40
11246;DHT22;59870;50.106;8.580;2023-05-23T01:38:31;23.50;90.40
11246;DHT22;59870;50.106;8.580;2023-05-23T01:40:59;22.90;90.20
11246;DHT22;59870;50.106;8.580;2023-05-23T01:43:27;22.90;90.20
11246;DHT22;59870;50.106;8.580;2023-05-23T01:45:55;22.90;90.00
11246;DHT22;59870;50.106;8.580;2023-05-23T01:48:25;22.90;90.10
11246;DHT22;59870;50.106;8.580;2023-05-23T01:50:54;22.80;90.00
11246;DHT22;59870;50.106;8.580;2023-05-23T01:53:24;22.80;90.20
11246;DHT22;59870;50.106;8.580;2023-05-23T01:55:53;22.80;90.20
11246;DHT22;59870;50.106;8.580;2023-05-23T01:58:21;22.70;90.20
11246;DHT22;59870;50.106;8.580;2023-05-23T02:00:49;22.70;90.20
11246;DHT22;59870;50.106;8.580;2023-05-23T02:03:17;22.70;90.20
11246;DHT22;59870;50.106;8.580;2023-05-23T02:05:44;22.20;90.20
11246;DHT22;59870;50.106;8.580;2023-05-23T02:08:12;22.60;90.30
11246;DHT22;59870;50.106;8.580;2023-05-23T02:10:40;22.60;90.20
11246;DHT22;59870;50.106;8.580;2023-05-23T02:13:07;22.50;90.10
11246;DHT22;59870;50.106;8.580;2023-05-23T02:15:34;23.00;90.40
11246;DHT22;59870;50.106;8.580;2023-05-23T02:18:02;22.50;90.00
11246;DHT22;59870;50.106;8.580;2023-05-23T02:20:30;23.00;90.30
11246;DHT22;59870;50.106;8.580;2023-05-23T02:22:58;22.40;90.00
11246;DHT22;59870;50.106;8.580;2023-05-23T02:25:25;22.40;90.10
11246;DHT22;59870;50.106;8.580;2023-05-23T02:27:53;22.40;90.10
11246;DHT22;59870;50.106;8.580;2023-05-23T02:30:21;22.60;90.00
11246;DHT22;59870;50.106;8.580;2023-05-23T02:32:49;22.80;90.10
11246;DHT22;59870;50.106;8.580;2023-05-23T02:35:17;22.70;90.10
11246;DHT22;59870;50.106;8.580;2023-05-23T02:37:45;22.90;90.20
11246;DHT22;59870;50.106;8.580;2023-05-23T02:40:13;22.10;90.00
11246;DHT22;59870;50.106;8.580;2023-05-23T02:42:40;22.10;89.90
11246;DHT22;59870;50.106;8.580;2023-05-23T02:45:08;22.50;90.00
11246;DHT22;59870;50.106;8.580;2023-05-23T02:47:36;22.10;89.60
11246;DHT22;59870;50.106;8.580;2023-05-23T02:50:04;22.30;89.90
11246;DHT22;59870;50.106;8.580;2023-05-23T02:52:31;22.00;90.10
11246;DHT22;59870;50.106;8.580;2023-05-23T02:54:59;22.30;90.10
11246;DHT22;59870;50.106;8.580;2023-05-23T02:57:27;22.60;90.00
11246;DHT22;59870;50.106;8.580;2023-05-23T02:59:55;22.60;90.10
11246;DHT22;59870;50.106;8.580;2023-05-23T03:02:22;21.80;89.00
11246;DHT22;59870;50.106;8.580;2023-05-23T03:04:50;22.40;89.60
11246;DHT22;59870;50.106;8.580;2023-05-23T03:07:17;21.90;88.80
11246;DHT22;59870;50.106;8.580;2023-05-23T03:09:55;22.10;88.60
11246;DHT22;59870;50.106;8.580;2023-05-23T03:12:22;22.30;88.70
11246;DHT22;59870;50.106;8.580;2023-05-23T03:14:50;21.70;87.70
11246;DHT22;59870;50.106;8.580;2023-05-23T03:17:17;22.10;87.80
11246;DHT22;59870;50.106;8.580;2023-05-23T03:19:45;21.70;87.40
11246;DHT22;59870;50.106;8.580;2023-05-23T03:22:12;22.20;88.10
11246;DHT22;59870;50.106;8.580;2023-05-23T03:24:41;21.60;87.50
11246;DHT22;59870;50.106;8.580;2023-05-23T03:27:10;21.50;86.90
11246;DHT22;59870;50.106;8.580;2023-05-23T03:29:38;21.70;86.70
11246;DHT22;59870;50.106;8.580;2023-05-23T03:32:05;21.50;86.50
11246;DHT22;59870;50.106;8.580;2023-05-23T03:34:33;21.40;86.70
11246;DHT22;59870;50.106;8.580;2023-05-23T03:37:03;21.40;86.70
11246;DHT22;59870;50.106;8.580;2023-05-23T03:39:30;21.30;86.10
11246;DHT22;59870;50.106;8.580;2023-05-23T03:41:58;21.30;86.60
11246;DHT22;59870;50.106;8.580;2023-05-23T03:44:25;21.60;86.20
11246;DHT22;59870;50.106;8.580;2023-05-23T03:46:53;21.60;86.90
11246;DHT22;59870;50.106;8.580;2023-05-23T03:49:20;21.60;86.00
11246;DHT22;59870;50.106;8.580;2023-05-23T03:51:48;21.00;85.40
11246;DHT22;59870;50.106;8.580;2023-05-23T03:54:16;21.10;85.90
11246;DHT22;59870;50.106;8.580;2023-05-23T03:56:45;21.10;86.40
11246;DHT22;59870;50.106;8.580;2023-05-23T03:59:24;21.10;85.80
11246;DHT22;59870;50.106;8.580;2023-05-23T04:08:54;21.00;86.50
11246;DHT22;59870;50.106;8.580;2023-05-23T04:11:22;21.30;86.90
11246;DHT22;59870;50.106;8.580;2023-05-23T04:16:53;20.90;87.00
11246;DHT22;59870;50.106;8.580;2023-05-23T04:19:21;21.20;87.00
11246;DHT22;59870;50.106;8.580;2023-05-23T04:21:53;20.90;86.50
11246;DHT22;59870;50.106;8.580;2023-05-23T04:40:12;20.80;85.20
11246;DHT22;59870;50.106;8.580;2023-05-23T04:43:01;20.90;84.90
11246;DHT22;59870;50.106;8.580;2023-05-23T04:45:47;20.90;84.80
11246;DHT22;59870;50.106;8.580;2023-05-23T04:49:02;20.50;84.10
11246;DHT22;59870;50.106;8.580;2023-05-23T04:55:31;20.90;85.20
11246;DHT22;59870;50.106;8.580;2023-05-23T04:58:00;20.90;85.00
11246;DHT22;59870;50.106;8.580;2023-05-23T05:00:30;21.20;85.60
11246;DHT22;59870;50.106;8.580;2023-05-23T05:02:57;21.50;86.10
11246;DHT22;59870;50.106;8.580;2023-05-23T05:05:28;20.90;85.00
11246;DHT22;59870;50.106;8.580;2023-05-23T05:07:55;21.30;86.00
11246;DHT22;59870;50.106;8.580;2023-05-23T05:10:23;21.00;85.20
11246;DHT22;59870;50.106;8.580;2023-05-23T05:12:51;21.00;85.10
11246;DHT22;59870;50.106;8.580;2023-05-23T05:15:18;21.40;84.90
11246;DHT22;59870;50.106;8.580;2023-05-23T05:17:50;21.40;84.50
11246;DHT22;59870;50.106;8.580;2023-05-23T05:20:20;21.10;84.20
11246;DHT22;59870;50.106;8.580;2023-05-23T05:22:57;21.10;83.60
11246;DHT22;59870;50.106;8.580;2023-05-23T05:25:25;21.20;83.90
11246;DHT22;59870;50.106;8.580;2023-05-23T05:27:53;21.20;82.40
11246;DHT22;59870;50.106;8.580;2023-05-23T05:30:21;21.20;82.30
11246;DHT22;59870;50.106;8.580;2023-05-23T05:32:52;21.20;82.40
11246;DHT22;59870;50.106;8.580;2023-05-23T05:35:21;21.30;82.40
11246;DHT22;59870;50.106;8.580;2023-05-23T05:37:48;21.50;82.00
11246;DHT22;59870;50.106;8.580;2023-05-23T05:40:16;21.30;81.50
11246;DHT22;59870;50.106;8.580;2023-05-23T05:42:43;21.40;81.40
11246;DHT22;59870;50.106;8.580;2023-05-23T05:45:11;22.00;81.80
11246;DHT22;59870;50.106;8.580;2023-05-23T05:47:40;21.40;81.20
11246;DHT22;59870;50.106;8.580;2023-05-23T05:50:08;21.60;81.90
11246;DHT22;59870;50.106;8.580;2023-05-23T05:52:37;21.40;81.90
11246;DHT22;59870;50.106;8.580;2023-05-23T05:55:09;21.50;80.60
11246;DHT22;59870;50.106;8.580;2023-05-23T05:57:44;21.50;80.40
11246;DHT22;59870;50.106;8.580;2023-05-23T06:00:18;21.60;81.20
11246;DHT22;59870;50.106;8.580;2023-05-23T06:02:46;21.60;80.60
11246;DHT22;59870;50.106;8.580;2023-05-23T06:05:19;21.60;80.50
11246;DHT22;59870;50.106;8.580;2023-05-23T06:07:48;22.10;79.20
11246;DHT22;59870;50.106;8.580;2023-05-23T06:10:16;22.10;79.80
11246;DHT22;59870;50.106;8.580;2023-05-23T06:12:44;21.70;76.30
11246;DHT22;59870;50.106;8.580;2023-05-23T06:15:12;21.70;76.60
11246;DHT22;59870;50.106;8.580;2023-05-23T06:17:41;21.70;78.10
11246;DHT22;59870;50.106;8.580;2023-05-23T06:20:10;22.10;76.90
11246;DHT22;59870;50.106;8.580;2023-05-23T06:22:42;21.70;76.00
11246;DHT22;59870;50.106;8.580;2023-05-23T06:25:09;21.80;75.90
11246;DHT22;59870;50.106;8.580;2023-05-23T06:27:41;21.80;76.80
11246;DHT22;59870;50.106;8.580;2023-05-23T06:30:09;22.30;76.00
11246;DHT22;59870;50.106;8.580;2023-05-23T06:32:37;21.90;75.20
11246;DHT22;59870;50.106;8.580;2023-05-23T06:35:05;21.90;75.00
11246;DHT22;59870;50.106;8.580;2023-05-23T06:37:33;21.90;75.30
11246;DHT22;59870;50.106;8.580;2023-05-23T06:40:02;22.20;76.00
11246;DHT22;59870;50.106;8.580;2023-05-23T06:42:30;21.90;75.70
11246;DHT22;59870;50.106;8.580;2023-05-23T06:45:08;22.20;76.40
11246;DHT22;59870;50.106;8.580;2023-05-23T06:47:37;21.90;76.20
11246;DHT22;59870;50.106;8.580;2023-05-23T06:50:05;21.90;74.90
11246;DHT22;59870;50.106;8.580;2023-05-23T06:52:33;21.90;75.80
11246;DHT22;59870;50.106;8.580;2023-05-23T06:55:01;22.10;76.60
11246;DHT22;59870;50.106;8.580;2023-05-23T06:57:29;21.90;77.70
11246;DHT22;59870;50.106;8.580;2023-05-23T06:59:57;22.00;77.70
11246;DHT22;59870;50.106;8.580;2023-05-23T07:02:25;22.70;78.10
11246;DHT22;59870;50.106;8.580;2023-05-23T07:04:53;22.60;77.70
11246;DHT22;59870;50.106;8.580;2023-05-23T07:07:41;22.10;77.30
11246;DHT22;59870;50.106;8.580;2023-05-23T07:10:09;22.50;79.90
11246;DHT22;59870;50.106;8.580;2023-05-23T07:12:37;22.50;79.20
11246;DHT22;59870;50.106;8.580;2023-05-23T07:15:05;23.00;78.90
11246;DHT22;59870;50.106;8.580;2023-05-23T07:17:34;23.30;77.30
11246;DHT22;59870;50.106;8.580;2023-05-23T07:20:03;24.10;77.10
11246;DHT22;59870;50.106;8.580;2023-05-23T07:22:33;24.40;76.00
11246;DHT22;59870;50.106;8.580;2023-05-23T07:25:02;24.80;73.20
11246;DHT22;59870;50.106;8.580;2023-05-23T07:27:32;25.40;73.10
11246;DHT22;59870;50.106;8.580;2023-05-23T07:30:01;25.90;71.60
11246;DHT22;59870;50.106;8.580;2023-05-23T07:32:31;26.30;68.60
11246;DHT22;59870;50.106;8.580;2023-05-23T07:34:59;26.70;66.60
11246;DHT22;59870;50.106;8.580;2023-05-23T07:37:26;27.00;67.00
11246;DHT22;59870;50.106;8.580;2023-05-23T07:39:54;28.00;68.00
11246;DHT22;59870;50.106;8.580;2023-05-23T07:42:22;27.70;65.00
11246;DHT22;59870;50.106;8.580;2023-05-23T07:44:49;28.00;64.70
11246;DHT22;59870;50.106;8.580;2023-05-23T07:47:17;28.20;63.80
11246;DHT22;59870;50.106;8.580;2023-05-23T07:49:46;28.40;62.10
11246;DHT22;59870;50.106;8.580;2023-05-23T07:52:13;29.00;61.90
11246;DHT22;59870;50.106;8.580;2023-05-23T07:54:42;28.60;61.20
11246;DHT22;59870;50.106;8.580;2023-05-23T07:57:11;28.60;59.80
11246;DHT22;59870;50.106;8.580;2023-05-23T07:59:44;28.60;59.50
11246;DHT22;59870;50.106;8.580;2023-05-23T08:02:12;28.50;59.70
11246;DHT22;59870;50.106;8.580;2023-05-23T08:04:41;28.40;59.30
11246;DHT22;59870;50.106;8.580;2023-05-23T08:07:09;28.40;59.40
11246;DHT22;59870;50.106;8.580;2023-05-23T08:09:52;28.30;59.20
11246;DHT22;59870;50.106;8.580;2023-05-23T08:12:20;28.20;59.40
11246;DHT22;59870;50.106;8.580;2023-05-23T08:14:56;28.10;59.90
11246;DHT22;59870;50.106;8.580;2023-05-23T08:17:29;28.40;60.50
11246;DHT22;59870;50.106;8.580;2023-05-23T08:19:57;28.10;59.10
11246;DHT22;59870;50.106;8.580;2023-05-23T08:22:30;28.40;60.10
11246;DHT22;59870;50.106;8.580;2023-05-23T08:24:58;28.00;60.80
11246;DHT22;59870;50.106;8.580;2023-05-23T08:27:27;28.00;60.40
11246;DHT22;59870;50.106;8.580;2023-05-23T08:30:00;28.00;60.00
11246;DHT22;59870;50.106;8.580;2023-05-23T08:32:29;28.00;61.00
11246;DHT22;59870;50.106;8.580;2023-05-23T08:34:57;28.00;60.90
11246;DHT22;59870;50.106;8.580;2023-05-23T08:37:25;28.00;60.40
11246;DHT22;59870;50.106;8.580;2023-05-23T08:39:54;28.20;60.20
11246;DHT22;59870;50.106;8.580;2023-05-23T08:42:34;28.00;59.00
11246;DHT22;59870;50.106;8.580;2023-05-23T08:45:03;28.10;60.00
11246;DHT22;59870;50.106;8.580;2023-05-23T08:47:33;28.30;61.80
11246;DHT22;59870;50.106;8.580;2023-05-23T08:50:05;28.70;61.00
11246;DHT22;59870;50.106;8.580;2023-05-23T08:52:36;28.80;59.30
11246;DHT22;59870;50.106;8.580;2023-05-23T08:55:10;29.00;59.00
11246;DHT22;59870;50.106;8.580;2023-05-23T08:57:39;29.20;57.80
11246;DHT22;59870;50.106;8.580;2023-05-23T09:00:29;29.80;56.90
11246;DHT22;59870;50.106;8.580;2023-05-23T09:02:58;29.40;56.30
11246;DHT22;59870;50.106;8.580;2023-05-23T09:05:47;29.60;55.90
11246;DHT22;59870;50.106;8.580;2023-05-23T09:08:15;29.60;55.20
11246;DHT22;59870;50.106;8.580;2023-05-23T09:10:44;29.40;55.30
11246;DHT22;59870;50.106;8.580;2023-05-23T09:13:13;29.60;55.50
11246;DHT22;59870;50.106;8.580;2023-05-23T09:16:04;29.40;55.70
11246;DHT22;59870;50.106;8.580;2023-05-23T09:18:39;29.00;56.30
11246;DHT22;59870;50.106;8.580;2023-05-23T09:21:10;29.50;56.50
11246;DHT22;59870;50.106;8.580;2023-05-23T09:23:48;29.30;56.50
11246;DHT22;59870;50.106;8.580;2023-05-23T09:26:16;28.60;56.70
11246;DHT22;59870;50.106;8.580;2023-05-23T09:28:43;28.60;57.40
11246;DHT22;59870;50.106;8.580;2023-05-23T09:31:11;28.30;57.50
11246;DHT22;59870;50.106;8.580;2023-05-23T09:33:41;28.50;57.40
11246;DHT22;59870;50.106;8.580;2023-05-23T09:36:10;28.10;57.60
11246;DHT22;59870;50.106;8.580;2023-05-23T09:38:38;28.00;58.30
11246;DHT22;59870;50.106;8.580;2023-05-23T09:41:06;27.90;58.40
11246;DHT22;59870;50.106;8.580;2023-05-23T09:43:34;28.50;59.50
11246;DHT22;59870;50.106;8.580;2023-05-23T09:46:29;28.00;59.40
11246;DHT22;59870;50.106;8.580;2023-05-23T09:48:56;28.10;59.50
11246;DHT22;59870;50.106;8.580;2023-05-23T09:51:26;28.10;59.10
11246;DHT22;59870;50.106;8.580;2023-05-23T09:53:55;28.10;58.70
11246;DHT22;59870;50.106;8.580;2023-05-23T09:56:24;28.20;58.60
11246;DHT22;59870;50.106;8.580;2023-05-23T09:58:53;28.10;57.50
11246;DHT22;59870;50.106;8.580;2023-05-23T10:01:22;28.40;57.30
11246;DHT22;59870;50.106;8.580;2023-05-23T10:03:51;28.40;57.30
11246;DHT22;59870;50.106;8.580;2023-05-23T10:06:49;28.80;57.30
11246;DHT22;59870;50.106;8.580;2023-05-23T10:09:22;28.10;58.00
11246;DHT22;59870;50.106;8.580;2023-05-23T10:14:44;28.00;57.90
11246;DHT22;59870;50.106;8.580;2023-05-23T10:17:19;28.10;57.10
11246;DHT22;59870;50.106;8.580;2023-05-23T10:19:58;27.90;57.30
11246;DHT22;59870;50.106;8.580;2023-05-23T10:22:27;28.00;57.20
11246;DHT22;59870;50.106;8.580;2023-05-23T10:24:56;27.80;57.30
11246;DHT22;59870;50.106;8.580;2023-05-23T10:27:26;27.80;57.80
11246;DHT22;59870;50.106;8.580;2023-05-23T10:29:54;27.70;57.80
11246;DHT22;59870;50.106;8.580;2023-05-23T10:32:22;27.60;57.70
11246;DHT22;59870;50.106;8.580;2023-05-23T10:37:37;27.60;59.50
11246;DHT22;59870;50.106;8.580;2023-05-23T10:40:30;27.60;58.50
11246;DHT22;59870;50.106;8.580;2023-05-23T10:43:13;27.60;58.60
11246;DHT22;59870;50.106;8.580;2023-05-23T10:45:42;28.00;57.90
11246;DHT22;59870;50.106;8.580;2023-05-23T10:48:32;27.70;57.20
11246;DHT22;59870;50.106;8.580;2023-05-23T10:51:06;27.70;57.70
11246;DHT22;59870;50.106;8.580;2023-05-23T10:53:42;27.80;57.60
11246;DHT22;59870;50.106;8.580;2023-05-23T10:56:18;27.80;57.90
11246;DHT22;59870;50.106;8.580;2023-05-23T10:58:53;27.80;57.80
11246;DHT22;59870;50.106;8.580;2023-05-23T11:01:21;27.80;57.30
11246;DHT22;59870;50.106;8.580;2023-05-23T11:03:51;27.80;57.80
11246;DHT22;59870;50.106;8.580;2023-05-23T11:06:37;27.80;57.80
11246;DHT22;59870;50.106;8.580;2023-05-23T11:09:11;27.70;57.80
11246;DHT22;59870;50.106;8.580;2023-05-23T11:12:01;27.70;57.30
11246;DHT22;59870;50.106;8.580;2023-05-23T11:14:33;27.60;57.00
11246;DHT22;59870;50.106;8.580;2023-05-23T11:19:38;27.60;57.30
11246;DHT22;59870;50.106;8.580;2023-05-23T11:22:07;28.00;58.10
11246;DHT22;59870;50.106;8.580;2023-05-23T11:24:49;27.50;57.80
11246;DHT22;59870;50.106;8.580;2023-05-23T11:27:32;27.50;58.30
11246;DHT22;59870;50.106;8.580;2023-05-23T11:30:17;28.10;58.80
11246;DHT22;59870;50.106;8.580;2023-05-23T11:32:53;27.50;58.30
11246;DHT22;59870;50.106;8.580;2023-05-23T11:35:24;27.00;58.20
11246;DHT22;59870;50.106;8.580;2023-05-23T11:37:51;27.50;59.30
11246;DHT22;59870;50.106;8.580;2023-05-23T11:42:53;27.60;58.50
11246;DHT22;59870;50.106;8.580;2023-05-23T11:45:22;28.10;58.90
11246;DHT22;59870;50.106;8.580;2023-05-23T11:47:49;27.90;59.50
11246;DHT22;59870;50.106;8.580;2023-05-23T11:50:17;27.60;58.60
11246;DHT22;59870;50.106;8.580;2023-05-23T11:52:46;27.60;59.40
11246;DHT22;59870;50.106;8.580;2023-05-23T11:55:19;27.50;59.10
11246;DHT22;59870;50.106;8.580;2023-05-23T11:57:48;27.60;59.10
11246;DHT22;59870;50.106;8.580;2023-05-23T12:00:16;27.60;59.30
11246;DHT22;59870;50.106;8.580;2023-05-23T12:02:45;27.60;59.20
11246;DHT22;59870;50.106;8.580;2023-05-23T12:05:16;27.60;58.80
11246;DHT22;59870;50.106;8.580;2023-05-23T12:07:48;27.60;57.90
11246;DHT22;59870;50.106;8.580;2023-05-23T12:10:16;27.60;57.80
11246;DHT22;59870;50.106;8.580;2023-05-23T12:12:44;27.50;57.90
11246;DHT22;59870;50.106;8.580;2023-05-23T12:15:12;27.50;58.10
11246;DHT22;59870;50.106;8.580;2023-05-23T12:17:44;27.50;57.00
11246;DHT22;59870;50.106;8.580;2023-05-23T12:20:15;27.50;57.20
11246;DHT22;59870;50.106;8.580;2023-05-23T12:22:43;27.40;57.70
11246;DHT22;59870;50.106;8.580;2023-05-23T12:25:11;27.40;56.80
11246;DHT22;59870;50.106;8.580;2023-05-23T12:27:40;27.40;55.90
11246;DHT22;59870;50.106;8.580;2023-05-23T12:30:13;27.40;55.50
11246;DHT22;59870;50.106;8.580;2023-05-23T12:32:42;27.30;56.50
11246;DHT22;59870;50.106;8.580;2023-05-23T12:35:13;27.60;57.20
11246;DHT22;59870;50.106;8.580;2023-05-23T12:37:43;27.30;58.00
11246;DHT22;59870;50.106;8.580;2023-05-23T12:40:13;27.30;57.80
11246;DHT22;59870;50.106;8.580;2023-05-23T12:42:51;27.30;57.00
11246;DHT22;59870;50.106;8.580;2023-05-23T12:45:33;27.10;57.80
11246;DHT22;59870;50.106;8.580;2023-05-23T12:48:05;27.10;57.40
11246;DHT22;59870;50.106;8.580;2023-05-23T12:50:34;27.00;57.30
11246;DHT22;59870;50.106;8.580;2023-05-23T12:53:02;27.50;58.30
11246;DHT22;59870;50.106;8.580;2023-05-23T12:55:30;26.90;57.90
11246;DHT22;59870;50.106;8.580;2023-05-23T12:58:00;26.80;57.70
11246;DHT22;59870;50.106;8.580;2023-05-23T13:00:28;26.70;58.20
11246;DHT22;59870;50.106;8.580;2023-05-23T13:02:55;26.70;58.20
11246;DHT22;59870;50.106;8.580;2023-05-23T13:05:25;26.60;58.20
11246;DHT22;59870;50.106;8.580;2023-05-23T13:07:56;26.50;58.30
11246;DHT22;59870;50.106;8.580;2023-05-23T13:10:26;26.50;59.20
11246;DHT22;59870;50.106;8.580;2023-05-23T13:12:57;26.50;58.70
11246;DHT22;59870;50.106;8.580;2023-05-23T13:15:25;26.50;58.60
11246;DHT22;59870;50.106;8.580;2023-05-23T13:17:55;26.80;59.20
11246;DHT22;59870;50.106;8.580;2023-05-23T13:20:24;26.50;58.70
11246;DHT22;59870;50.106;8.580;2023-05-23T13:22:57;27.10;59.00
11246;DHT22;59870;50.106;8.580;2023-05-23T13:25:26;26.50;59.10
11246;DHT22;59870;50.106;8.580;2023-05-23T13:27:55;26.60;59.40
11246;DHT22;59870;50.106;8.580;2023-05-23T13:30:23;26.70;58.20
11246;DHT22;59870;50.106;8.580;2023-05-23T13:32:51;26.70;57.70
11246;DHT22;59870;50.106;8.580;2023-05-23T13:35:19;26.70;57.60
11246;DHT22;59870;50.106;8.580;2023-05-23T13:37:46;26.80;58.50
11246;DHT22;59870;50.106;8.580;2023-05-23T13:40:18;27.20;57.80
11246;DHT22;59870;50.106;8.580;2023-05-23T13:42:48;26.80;57.50
11246;DHT22;59870;50.106;8.580;2023-05-23T13:45:19;27.30;58.10
11246;DHT22;59870;50.106;8.580;2023-05-23T13:47:49;26.80;57.50
11246;DHT22;59870;50.106;8.580;2023-05-23T13:50:16;26.80;56.80
11246;DHT22;59870;50.106;8.580;2023-05-23T13:52:44;26.80;57.20
11246;DHT22;59870;50.106;8.580;2023-05-23T13:55:15;26.70;57.30
11246;DHT22;59870;50.106;8.580;2023-05-23T13:57:45;27.00;57.40
11246;DHT22;59870;50.106;8.580;2023-05-23T14:00:13;26.70;56.90
11246;DHT22;59870;50.106;8.580;2023-05-23T14:02:41;26.70;57.30
11246;DHT22;59870;50.106;8.580;2023-05-23T14:05:09;26.70;57.00
11246;DHT22;59870;50.106;8.580;2023-05-23T14:07:37;26.70;56.50
11246;DHT22;59870;50.106;8.580;2023-05-23T14:10:06;26.70;56.70
11246;DHT22;59870;50.106;8.580;2023-05-23T14:12:35;26.60;56.90
11246;DHT22;59870;50.106;8.580;2023-05-23T14:15:04;26.60;56.70
11246;DHT22;59870;50.106;8.580;2023-05-23T14:17:31;26.50;56.90
11246;DHT22;59870;50.106;8.580;2023-05-23T14:19:59;26.50;57.50
11246;DHT22;59870;50.106;8.580;2023-05-23T14:22:26;26.50;57.20
11246;DHT22;59870;50.106;8.580;2023-05-23T14:24:53;26.40;57.30
11246;DHT22;59870;50.106;8.580;2023-05-23T14:27:21;26.30;57.50
11246;DHT22;59870;50.106;8.580;2023-05-23T14:29:48;26.30;57.40
11246;DHT22;59870;50.106;8.580;2023-05-23T14:32:16;26.20;57.10
11246;DHT22;59870;50.106;8.580;2023-05-23T14:34:45;26.10;57.10
11246;DHT22;59870;50.106;8.580;2023-05-23T14:37:12;26.10;57.90
11246;DHT22;59870;50.106;8.580;2023-05-23T14:39:40;26.10;57.00
11246;DHT22;59870;50.106;8.580;2023-05-23T14:42:08;26.10;57.60
11246;DHT22;59870;50.106;8.580;2023-05-23T14:44:35;26.10;57.40
11246;DHT22;59870;50.106;8.580;2023-05-23T14:47:03;26.50;58.60
11246;DHT22;59870;50.106;8.580;2023-05-23T14:49:31;25.90;58.20
11246;DHT22;59870;50.106;8.580;2023-05-23T14:51:58;26.20;58.90
11246;DHT22;59870;50.106;8.580;2023-05-23T14:54:26;25.90;58.30
11246;DHT22;59870;50.106;8.580;2023-05-23T14:56:53;25.90;58.40
11246;DHT22;59870;50.106;8.580;2023-05-23T14:59:21;25.90;59.10
11246;DHT22;59870;50.106;8.580;2023-05-23T15:01:49;25.80;58.50
11246;DHT22;59870;50.106;8.580;2023-05-23T15:04:19;26.30;59.00
11246;DHT22;59870;50.106;8.580;2023-05-23T15:06:46;25.70;58.50
11246;DHT22;59870;50.106;8.580;2023-05-23T15:09:15;25.70;57.10
11246;DHT22;59870;50.106;8.580;2023-05-23T15:11:45;25.70;56.90
11246;DHT22;59870;50.106;8.580;2023-05-23T15:14:15;25.80;55.90
11246;DHT22;59870;50.106;8.580;2023-05-23T15:16:44;25.50;55.90
11246;DHT22;59870;50.106;8.580;2023-05-23T15:19:11;25.40;56.20
11246;DHT22;59870;50.106;8.580;2023-05-23T15:21:39;25.20;55.80
11246;DHT22;59870;50.106;8.580;2023-05-23T15:24:16;25.10;55.80
11246;DHT22;59870;50.106;8.580;2023-05-23T15:26:43;25.10;55.80
11246;DHT22;59870;50.106;8.580;2023-05-23T15:29:11;25.00;56.50
11246;DHT22;59870;50.106;8.580;2023-05-23T15:31:40;24.90;56.40
11246;DHT22;59870;50.106;8.580;2023-05-23T15:34:08;25.40;57.10
11246;DHT22;59870;50.106;8.580;2023-05-23T15:36:35;25.10;56.30
11246;DHT22;59870;50.106;8.580;2023-05-23T15:39:09;24.70;56.60
11246;DHT22;59870;50.106;8.580;2023-05-23T15:41:38;24.60;55.90
11246;DHT22;59870;50.106;8.580;2023-05-23T15:44:06;24.50;56.70
11246;DHT22;59870;50.106;8.580;2023-05-23T15:46:34;24.60;56.70
11246;DHT22;59870;50.106;8.580;2023-05-23T15:49:03;24.30;56.10
11246;DHT22;59870;50.106;8.580;2023-05-23T15:51:50;24.10;56.20
11246;DHT22;59870;50.106;8.580;2023-05-23T15:54:20;23.80;57.30
11246;DHT22;59870;50.106;8.580;2023-05-23T15:56:47;23.80;57.60
11246;DHT22;59870;50.106;8.580;2023-05-23T15:59:15;23.60;57.80
11246;DHT22;59870;50.106;8.580;2023-05-23T16:01:43;23.60;58.30
11246;DHT22;59870;50.106;8.580;2023-05-23T16:04:12;23.50;58.00
11246;DHT22;59870;50.106;8.580;2023-05-23T16:06:40;23.50;58.10
11246;DHT22;59870;50.106;8.580;2023-05-23T16:09:08;23.40;58.20
11246;DHT22;59870;50.106;8.580;2023-05-23T16:11:36;23.20;58.40
11246;DHT22;59870;50.106;8.580;2023-05-23T16:14:05;23.20;58.60
11246;DHT22;59870;50.106;8.580;2023-05-23T16:16:33;23.10;58.30
11246;DHT22;59870;50.106;8.580;2023-05-23T16:19:01;23.00;57.30
11246;DHT22;59870;50.106;8.580;2023-05-23T16:21:29;22.90;57.50
11246;DHT22;59870;50.106;8.580;2023-05-23T16:23:57;22.80;57.10
11246;DHT22;59870;50.106;8.580;2023-05-23T16:26:24;23.00;57.20
11246;DHT22;59870;50.106;8.580;2023-05-23T16:28:52;23.20;57.10
11246;DHT22;59870;50.106;8.580;2023-05-23T16:31:25;22.50;56.70
11246;DHT22;59870;50.106;8.580;2023-05-23T16:33:54;22.40;56.40
11246;DHT22;59870;50.106;8.580;2023-05-23T16:36:22;22.90;56.30
11246;DHT22;59870;50.106;8.580;2023-05-23T16:38:49;22.10;56.00